Time;durP1;ratioP1;P1;durP2;ratioP2;P2;SDS_P1;SDS_P2;PMS_P1;PMS_P2;Temp;Humidity;BMP_temperature;BMP_pressure;BME280_temperature;BME280_humidity;BME280_pressure;Samples;Min_cycle;Max_cycle;Signal;HPM_P1;HPM_P2
2022/11/29 00:01:47;;;;;;;8.43;2.83;;;8.00;99.90;;;;;;5085059;28;20079;-76
2022/11/29 00:04:13;;;;;;;2.63;1.67;;;8.00;99.90;;;;;;5084970;28;20109;-76
2022/11/29 00:06:39;;;;;;;2.78;2.35;;;8.00;99.90;;;;;;5084317;28;20594;-76
2022/11/29 00:09:07;;;;;;;0.20;0.20;;;8.00;99.90;;;;;;5085182;28;20048;-76
2022/11/29 00:14:21;;;;;;;;;;;8.00;99.90;;;;;;5085656;28;20091;-77
2022/11/29 00:16:55;;;;;;;2.60;1.67;;;7.90;99.90;;;;;;5065114;28;20375;-76
2022/11/29 00:19:21;;;;;;;2.22;1.38;;;7.90;99.90;;;;;;5049440;28;20048;-76
2022/11/29 00:21:50;;;;;;;11.55;3.08;;;7.90;99.90;;;;;;5084164;28;20074;-77
2022/11/29 00:24:16;;;;;;;3.72;2.72;;;7.90;99.90;;;;;;5083106;28;20052;-77
2022/11/29 00:26:42;;;;;;;3.63;3.30;;;7.90;99.90;;;;;;5065877;28;20524;-77
2022/11/29 00:29:11;;;;;;;1.38;1.25;;;7.90;99.90;;;;;;5084633;28;20134;-77
2022/11/29 00:31:38;;;;;;;1.00;0.93;;;7.90;99.90;;;;;;5084632;28;20044;-77
2022/11/29 00:34:07;;;;;;;3.75;1.52;;;7.90;99.90;;;;;;5084466;28;20447;-77
2022/11/29 00:36:35;;;;;;;0.75;0.75;;;7.90;99.90;;;;;;5067526;28;20048;-77
2022/11/29 00:39:02;;;;;;;9.73;2.55;;;7.90;99.90;;;;;;5084757;28;20044;-77
2022/11/29 00:41:28;;;;;;;3.85;2.97;;;7.90;99.90;;;;;;5084031;28;20142;-77
2022/11/29 00:43:53;;;;;;;13.23;1.17;;;8.00;99.90;;;;;;5083727;28;20414;-77
2022/11/29 00:46:19;;;;;;;1.95;1.55;;;8.10;99.90;;;;;;5083807;28;20108;-77
2022/11/29 00:48:45;;;;;;;1.33;1.23;;;8.00;99.90;;;;;;5083479;28;20044;-77
2022/11/29 00:51:11;;;;;;;0.47;0.45;;;7.90;99.90;;;;;;5083300;28;20112;-77
2022/11/29 00:53:37;;;;;;;8.20;2.00;;;7.90;99.90;;;;;;5082653;28;20457;-77
2022/11/29 00:56:03;;;;;;;1.70;1.25;;;7.90;99.90;;;;;;5083162;28;20064;-77
2022/11/29 00:58:29;;;;;;;1.35;1.08;;;7.90;99.90;;;;;;5083259;28;20040;-77
2022/11/29 01:00:55;;;;;;;0.77;0.77;;;7.90;99.90;;;;;;5082470;28;20063;-77
2022/11/29 01:03:21;;;;;;;0.65;0.57;;;7.90;99.90;;;;;;5082888;28;20044;-76
2022/11/29 01:05:47;;;;;;;0.43;0.43;;;8.00;99.90;;;;;;5082304;28;20047;-77
2022/11/29 01:08:14;;;;;;;0.40;0.40;;;7.90;99.90;;;;;;5082467;28;20071;-77
2022/11/29 01:10:40;;;;;;;3.13;1.38;;;7.90;99.90;;;;;;5082469;28;20076;-77
2022/11/29 01:13:06;;;;;;;1.35;1.25;;;7.90;99.90;;;;;;5082705;28;20063;-77
2022/11/29 01:15:32;;;;;;;1.67;1.50;;;7.90;99.90;;;;;;5082889;28;20040;-77
2022/11/29 01:17:58;;;;;;;0.73;0.73;;;7.90;99.90;;;;;;5081664;28;20664;-77
2022/11/29 01:20:24;;;;;;;1.08;0.73;;;8.00;99.90;;;;;;5082857;28;20090;-77
2022/11/29 01:22:50;;;;;;;3.42;1.75;;;7.90;99.90;;;;;;5082679;28;20048;-77
2022/11/29 01:25:16;;;;;;;4.57;2.33;;;7.90;99.90;;;;;;5082387;28;20047;-77
2022/11/29 01:27:41;;;;;;;0.75;0.75;;;7.90;99.90;;;;;;5082434;28;20451;-77
2022/11/29 01:30:09;;;;;;;0.57;0.57;;;7.90;99.90;;;;;;5082668;28;20085;-77
2022/11/29 01:32:35;;;;;;;0.82;0.77;;;7.90;99.90;;;;;;5082518;28;20051;-77
2022/11/29 01:35:01;;;;;;;2.35;2.08;;;7.90;99.90;;;;;;5082033;28;20048;-77
2022/11/29 01:37:30;;;;;;;2.22;1.85;;;7.90;99.90;;;;;;5082233;28;20600;-77
2022/11/29 01:39:56;;;;;;;1.27;1.08;;;7.90;99.90;;;;;;5082656;28;20050;-77
2022/11/29 01:42:21;;;;;;;2.80;1.33;;;7.90;99.90;;;;;;5082132;28;20051;-77
2022/11/29 01:45:19;;;;;;;5.07;3.10;;;7.90;99.90;;;;;;5082149;28;20409;-76
2022/11/29 01:47:45;;;;;;;1.27;1.08;;;7.90;99.90;;;;;;5081627;28;20084;-77
2022/11/29 01:50:12;;;;;;;2.83;0.80;;;7.90;99.90;;;;;;5081908;28;20424;-77
2022/11/29 01:52:38;;;;;;;5.15;2.42;;;7.90;99.90;;;;;;5081768;28;20115;-76
2022/11/29 01:55:06;;;;;;;2.05;1.20;;;7.90;99.90;;;;;;5064259;28;20111;-77
2022/11/29 01:57:34;;;;;;;2.95;2.38;;;7.90;99.90;;;;;;5082125;28;20040;-77
2022/11/29 02:00:07;;;;;;;3.33;1.35;;;7.80;99.90;;;;;;5082023;28;20516;-77
2022/11/29 02:02:37;;;;;;;3.50;2.28;;;7.90;99.90;;;;;;5081781;28;20093;-77
2022/11/29 02:05:04;;;;;;;8.18;0.77;;;7.90;99.90;;;;;;5081892;28;20083;-76
2022/11/29 02:07:30;;;;;;;0.90;0.88;;;7.80;99.90;;;;;;5081848;28;20052;-76
2022/11/29 02:09:55;;;;;;;2.97;2.33;;;7.90;99.90;;;;;;5082366;28;20044;-76
2022/11/29 02:13:07;;;;;;;2.92;2.03;;;7.90;99.90;;;;;;5078217;28;20040;-76
2022/11/29 02:15:49;;;;;;;2.17;1.98;;;7.90;99.90;;;;;;5074812;28;20040;-76
2022/11/29 02:18:51;;;;;;;4.18;1.65;;;7.90;99.90;;;;;;5082104;28;20059;-76
2022/11/29 02:21:35;;;;;;;1.92;1.77;;;7.80;99.90;;;;;;5082208;28;20046;-77
2022/11/29 02:24:39;;;;;;;1.65;1.15;;;7.80;99.90;;;;;;5081840;28;20056;-77
2022/11/29 02:27:36;;;;;;;1.02;0.85;;;7.80;99.90;;;;;;4979888;28;20042;-77
2022/11/29 02:30:01;;;;;;;4.75;2.13;;;7.80;99.90;;;;;;4979255;28;20050;-77
2022/11/29 02:32:46;;;;;;;6.32;2.10;;;7.70;99.90;;;;;;5034508;28;20052;-77
2022/11/29 02:35:46;;;;;;;1.38;1.17;;;7.70;99.90;;;;;;5070211;28;20505;-78
2022/11/29 02:38:34;;;;;;;1.88;1.13;;;7.70;99.90;;;;;;5070231;28;20405;-77
2022/11/29 02:41:20;;;;;;;1.05;0.95;;;7.70;99.90;;;;;;5081115;28;20056;-77
2022/11/29 02:44:07;;;;;;;0.95;0.85;;;7.60;99.90;;;;;;5038583;28;20058;-77
2022/11/29 02:46:52;;;;;;;0.40;0.40;;;7.60;99.90;;;;;;5081300;28;20451;-77
2022/11/29 02:49:40;;;;;;;6.00;2.28;;;7.60;99.90;;;;;;5081475;28;20059;-77
2022/11/29 02:52:13;;;;;;;2.03;1.90;;;7.60;99.90;;;;;;5081229;28;20397;-77
2022/11/29 02:54:57;;;;;;;4.22;2.38;;;7.60;99.90;;;;;;5081450;28;20052;-77
2022/11/29 02:57:42;;;;;;;0.82;0.57;;;7.60;99.90;;;;;;5081618;28;20131;-77
2022/11/29 03:00:16;;;;;;;5.05;3.55;;;7.60;99.90;;;;;;5173811;22;20072;-85
2022/11/29 03:02:58;;;;;;;4.75;2.08;;;7.60;99.90;;;;;;5050964;28;20052;-85
2022/11/29 03:05:38;;;;;;;2.35;0.90;;;7.50;99.90;;;;;;5050694;28;20044;-85
2022/11/29 03:08:32;;;;;;;0.98;0.90;;;8.30;99.90;;;;;;5068609;28;20498;-85
2022/11/29 03:11:22;;;;;;;3.85;1.60;;;7.60;99.90;;;;;;5061099;28;20059;-85
2022/11/29 03:14:21;;;;;;;0.90;0.80;;;7.50;99.90;;;;;;5030926;28;20406;-85
2022/11/29 03:16:50;;;;;;;1.42;1.33;;;7.50;99.90;;;;;;5030349;28;20898;-85
2022/11/29 03:19:50;;;;;;;1.83;1.65;;;7.50;99.90;;;;;;5048166;28;20045;-85
2022/11/29 03:22:45;;;;;;;1.65;1.35;;;7.50;99.90;;;;;;5067420;28;20112;-85
2022/11/29 03:25:34;;;;;;;1.90;1.67;;;7.40;99.90;;;;;;5033306;28;20143;-86
2022/11/29 03:28:05;;;;;;;0.22;0.22;;;8.40;99.90;;;;;;5035241;28;20052;-86
2022/11/29 03:30:35;;;;;;;0.28;0.25;;;8.10;99.90;;;;;;5069724;28;20526;-85
2022/11/29 03:33:14;;;;;;;0.20;0.20;;;8.00;99.90;;;;;;5034199;28;20793;-85
2022/11/29 03:35:46;;;;;;;2.05;1.25;;;7.40;99.90;;;;;;5051834;28;20057;-86
2022/11/29 03:38:31;;;;;;;0.25;0.25;;;7.40;99.90;;;;;;5051449;28;20095;-85
2022/11/29 03:41:29;;;;;;;3.55;2.03;;;7.70;99.90;;;;;;5069444;28;20072;-85
2022/11/29 03:44:16;;;;;;;4.00;0.85;;;7.40;99.90;;;;;;5072735;28;20048;-87
2022/11/29 03:47:02;;;;;;;0.63;0.63;;;8.10;99.90;;;;;;5054699;28;20558;-87
2022/11/29 03:49:34;;;;;;;1.38;1.27;;;7.30;99.90;;;;;;5055192;28;20538;-85
2022/11/29 03:52:14;;;;;;;1.13;1.02;;;7.30;99.90;;;;;;5053747;28;20091;-86
2022/11/29 03:54:54;;;;;;;5.93;2.13;;;7.30;99.90;;;;;;5072060;28;20055;-85
2022/11/29 03:57:30;;;;;;;1.15;0.90;;;7.30;99.90;;;;;;5072260;28;20117;-86
2022/11/29 04:00:11;;;;;;;1.67;0.77;;;7.30;99.90;;;;;;5053922;28;20144;-86
2022/11/29 04:02:39;;;;;;;0.77;0.77;;;7.30;99.90;;;;;;5053968;28;20597;-86
2022/11/29 04:05:14;;;;;;;2.80;1.88;;;8.10;99.90;;;;;;5072152;28;20083;-85
2022/11/29 04:08:07;;;;;;;0.52;0.52;;;7.30;99.90;;;;;;5072139;28;20083;-85
2022/11/29 04:11:03;;;;;;;0.45;0.45;;;7.50;99.90;;;;;;5071632;28;20064;-85
2022/11/29 04:13:38;;;;;;;3.88;2.67;;;7.30;99.90;;;;;;5070768;28;20445;-85
2022/11/29 04:16:25;;;;;;;1.52;0.90;;;7.30;99.90;;;;;;5072722;28;20044;-85
2022/11/29 04:19:06;;;;;;;0.77;0.77;;;7.30;99.90;;;;;;5070812;28;20105;-86
2022/11/29 04:21:52;;;;;;;0.20;0.20;;;7.20;99.90;;;;;;5072383;28;20498;-86
2022/11/29 04:24:28;;;;;;;1.33;1.08;;;8.20;99.90;;;;;;5071791;28;20110;-84
2022/11/29 04:27:24;;;;;;;0.90;0.88;;;7.30;99.90;;;;;;5053731;28;20498;-85
2022/11/29 04:29:52;;;;;;;0.50;0.43;;;7.30;99.90;;;;;;5071925;28;20506;-86
2022/11/29 04:32:45;;;;;;;0.50;0.50;;;7.20;99.90;;;;;;5072101;28;20045;-85
2022/11/29 04:35:33;;;;;;;0.65;0.65;;;7.20;99.90;;;;;;5053970;28;20060;-85
2022/11/29 04:38:31;;;;;;;0.38;0.30;;;7.20;99.90;;;;;;5037711;28;20048;-85
2022/11/29 04:41:36;;;;;;;0.47;0.47;;;7.10;99.90;;;;;;5053875;28;20384;-84
2022/11/29 04:44:23;;;;;;;0.85;0.85;;;6.70;99.90;;;;;;5071527;28;20056;-85
2022/11/29 04:47:10;;;;;;;1.63;1.38;;;7.20;99.90;;;;;;5052734;28;20060;-85
2022/11/29 04:49:58;;;;;;;1.45;0.68;;;7.10;99.90;;;;;;5036751;28;20055;-86
2022/11/29 04:52:33;;;;;;;6.63;1.75;;;7.10;99.90;;;;;;5069458;28;20049;-86
2022/11/29 04:55:16;;;;;;;0.90;0.85;;;7.00;99.90;;;;;;5053005;28;20052;-85
2022/11/29 04:57:58;;;;;;;0.93;0.80;;;7.10;99.90;;;;;;5053205;28;20147;-85
2022/11/29 05:00:25;;;;;;;0.63;0.57;;;6.90;99.90;;;;;;5070423;28;20426;-86
2022/11/29 05:03:03;;;;;;;0.75;0.75;;;7.00;99.90;;;;;;5052692;28;20627;-85
2022/11/29 05:06:12;;;;;;;1.17;1.08;;;7.00;99.90;;;;;;5070778;28;20048;-85
2022/11/29 05:08:58;;;;;;;1.23;1.13;;;6.80;99.90;;;;;;5035079;28;20143;-85
2022/11/29 05:11:42;;;;;;;0.40;0.40;;;6.90;99.90;;;;;;5070491;28;20063;-84
2022/11/29 05:14:34;;;;;;;2.30;0.95;;;6.80;99.90;;;;;;5069635;28;20056;-86
2022/11/29 05:17:38;;;;;;;8.80;0.80;;;6.80;99.90;;;;;;5024302;28;20083;-86
2022/11/29 05:20:33;;;;;;;0.38;0.38;;;6.70;99.90;;;;;;5035566;28;20418;-86
2022/11/29 05:23:22;;;;;;;1.38;1.08;;;6.70;99.90;;;;;;5052975;28;20052;-87
2022/11/29 05:26:08;;;;;;;1.63;1.13;;;6.70;99.90;;;;;;5070352;28;20162;-86
2022/11/29 05:28:39;;;;;;;3.50;1.75;;;6.70;99.90;;;;;;5037150;28;20077;-86
2022/11/29 05:31:32;;;;;;;1.58;1.23;;;6.60;99.90;;;;;;5052722;28;20070;-86
2022/11/29 05:34:22;;;;;;;1.55;1.35;;;6.60;99.90;;;;;;5052561;28;20454;-86
2022/11/29 05:37:19;;;;;;;0.68;0.68;;;6.70;99.90;;;;;;5069881;28;20059;-86
2022/11/29 05:39:54;;;;;;;1.50;1.30;;;6.70;99.90;;;;;;5051748;28;20987;-85
2022/11/29 05:43:08;;;;;;;0.17;0.17;;;6.70;99.90;;;;;;5069596;28;20049;-85
2022/11/29 05:45:48;;;;;;;1.88;0.35;;;6.70;99.90;;;;;;5030604;28;20118;-85
2022/11/29 05:48:18;;;;;;;0.47;0.47;;;6.70;99.90;;;;;;5069557;28;20131;-85
2022/11/29 05:51:01;;;;;;;0.75;0.43;;;6.70;99.90;;;;;;5069052;28;20131;-87
2022/11/29 05:53:35;;;;;;;1.55;1.45;;;6.70;99.90;;;;;;5050735;28;20084;-85
2022/11/29 05:56:09;;;;;;;1.10;1.02;;;6.60;99.90;;;;;;5068778;28;20048;-85
2022/11/29 05:58:49;;;;;;;0.52;0.52;;;6.60;99.90;;;;;;5050900;28;20055;-86
2022/11/29 06:01:15;;;;;;;0.75;0.55;;;6.60;99.90;;;;;;5068302;28;20060;-85
2022/11/29 06:04:03;;;;;;;0.43;0.43;;;6.60;99.90;;;;;;5067807;28;20518;-85
2022/11/29 06:06:50;;;;;;;1.38;1.27;;;6.60;99.90;;;;;;5067782;28;20040;-85
2022/11/29 06:09:29;;;;;;;2.67;1.15;;;6.60;99.90;;;;;;5032995;28;20044;-85
2022/11/29 06:12:05;;;;;;;0.20;0.20;;;6.60;99.90;;;;;;5050114;28;20123;-85
2022/11/29 06:14:55;;;;;;;1.23;1.15;;;6.60;99.90;;;;;;5068073;28;20040;-85
2022/11/29 06:17:51;;;;;;;0.30;0.30;;;6.60;99.90;;;;;;5068502;28;20131;-85
2022/11/29 06:20:48;;;;;;;2.92;0.50;;;6.60;99.90;;;;;;5050437;28;20376;-84
2022/11/29 06:23:35;;;;;;;0.47;0.47;;;6.60;99.90;;;;;;5050459;28;20056;-86
2022/11/29 06:26:06;;;;;;;2.28;0.90;;;6.50;99.90;;;;;;5049870;28;20056;-85
2022/11/29 06:28:47;;;;;;;1.15;1.00;;;6.50;99.90;;;;;;5053452;28;20785;-85
2022/11/29 06:31:24;;;;;;;0.43;0.43;;;6.60;99.90;;;;;;5070965;28;20934;-85
2022/11/29 06:33:55;;;;;;;0.57;0.57;;;6.50;99.90;;;;;;5052733;28;20056;-84
2022/11/29 06:36:36;;;;;;;0.38;0.38;;;6.60;99.90;;;;;;5053292;28;20060;-85
2022/11/29 06:39:02;;;;;;;3.83;2.00;;;6.50;99.90;;;;;;5053078;28;20080;-86
2022/11/29 06:41:28;;;;;;;1.55;0.98;;;6.50;99.90;;;;;;5071345;28;20052;-85
2022/11/29 06:43:54;;;;;;;1.77;1.17;;;6.50;99.90;;;;;;5071594;28;20487;-85
2022/11/29 06:46:34;;;;;;;0.15;0.15;;;6.50;99.90;;;;;;5053290;28;20052;-85
2022/11/29 06:49:31;;;;;;;0.73;0.73;;;6.50;99.90;;;;;;5071372;28;20059;-85
2022/11/29 06:52:31;;;;;;;4.60;1.65;;;6.50;99.90;;;;;;5055516;28;20057;-85
2022/11/29 06:55:03;;;;;;;5.30;1.83;;;6.50;99.90;;;;;;5063304;28;20064;-85
2022/11/29 06:57:50;;;;;;;2.20;1.92;;;6.50;99.90;;;;;;5051030;28;20110;-85
2022/11/29 07:00:19;;;;;;;;;;;6.50;99.90;;;;;;5042670;28;20071;-85
2022/11/29 07:03:11;;;;;;;4.13;2.17;;;6.50;99.90;;;;;;5050921;28;19931;-85
2022/11/29 07:05:37;;;;;;;2.92;1.55;;;6.50;99.90;;;;;;5068420;28;20048;-85
2022/11/29 07:08:08;;;;;;;2.90;0.75;;;6.50;99.90;;;;;;5066829;28;20057;-85
2022/11/29 07:10:37;;;;;;;0.15;0.15;;;6.50;99.90;;;;;;5083695;28;20076;-85
2022/11/29 07:13:03;;;;;;;1.75;1.58;;;6.50;99.90;;;;;;5068046;28;20048;-85
2022/11/29 07:15:29;;;;;;;0.17;0.17;;;6.50;99.90;;;;;;5067936;28;20056;-86
2022/11/29 07:18:30;;;;;;;0.25;0.25;;;6.50;99.90;;;;;;5072027;28;20044;-85
2022/11/29 07:21:07;;;;;;;0.90;0.28;;;6.50;99.90;;;;;;5072115;28;20056;-85
2022/11/29 07:23:42;;;;;;;0.85;0.85;;;6.50;99.90;;;;;;5070297;28;20148;-85
2022/11/29 07:26:48;;;;;;;0.57;0.57;;;6.40;99.90;;;;;;5071612;28;20106;-85
2022/11/29 07:29:33;;;;;;;3.72;2.10;;;6.50;99.90;;;;;;5070147;28;20560;-85
2022/11/29 07:32:08;;;;;;;0.52;0.43;;;6.50;99.90;;;;;;5071356;28;20491;-85
2022/11/29 07:34:40;;;;;;;0.37;0.37;;;6.50;99.90;;;;;;5072555;28;20052;-85
2022/11/29 07:37:23;;;;;;;2.15;1.20;;;6.50;99.90;;;;;;5071748;28;20055;-85
2022/11/29 07:40:21;;;;;;;0.77;0.77;;;6.50;99.90;;;;;;5069873;28;20049;-85
2022/11/29 07:43:08;;;;;;;0.82;0.82;;;6.50;99.90;;;;;;5071489;28;20055;-85
2022/11/29 07:45:35;;;;;;;0.70;0.43;;;6.50;99.90;;;;;;5071404;28;20048;-85
2022/11/29 07:48:01;;;;;;;1.88;0.75;;;6.80;99.90;;;;;;5071283;28;20057;-85
2022/11/29 07:50:28;;;;;;;2.28;1.83;;;6.50;99.90;;;;;;5070933;28;20097;-87
2022/11/29 07:52:55;;;;;;;0.15;0.15;;;6.50;99.90;;;;;;5070682;28;20052;-86
2022/11/29 07:55:22;;;;;;;1.17;1.08;;;6.50;99.90;;;;;;5086603;28;20109;-84
2022/11/29 07:57:48;;;;;;;1.92;1.52;;;6.60;99.90;;;;;;5071173;28;20048;-85
2022/11/29 08:00:15;;;;;;;0.60;0.60;;;6.60;99.90;;;;;;5069549;28;20061;-85
2022/11/29 08:02:41;;;;;;;1.10;0.82;;;6.60;99.90;;;;;;5055940;28;20064;-85
2022/11/29 08:05:12;;;;;;;1.55;1.38;;;6.70;99.90;;;;;;5051023;28;20079;-85
2022/11/29 08:07:39;;;;;;;1.65;0.60;;;6.70;99.90;;;;;;5033005;28;20041;-85
2022/11/29 08:10:11;;;;;;;2.67;2.40;;;6.70;99.90;;;;;;5058613;28;20087;-85
2022/11/29 08:12:42;;;;;;;1.13;0.80;;;6.80;99.90;;;;;;5061902;28;20033;-85
2022/11/29 08:15:08;;;;;;;1.38;1.27;;;7.20;99.90;;;;;;5058790;28;20053;-85
2022/11/29 08:17:36;;;;;;;1.55;0.98;;;6.80;99.90;;;;;;5050345;28;20041;-85
2022/11/29 08:20:03;;;;;;;17.35;3.08;;;6.80;99.90;;;;;;5052990;28;20157;-85
2022/11/29 08:22:29;;;;;;;2.15;1.70;;;6.80;99.90;;;;;;5032833;28;20107;-84
2022/11/29 08:24:55;;;;;;;0.95;0.88;;;7.40;99.90;;;;;;5032118;28;20466;-84
2022/11/29 08:27:20;;;;;;;1.25;0.68;;;6.90;99.90;;;;;;5051756;28;20044;-84
2022/11/29 08:29:49;;;;;;;0.40;0.40;;;6.90;99.90;;;;;;5070605;28;20071;-86
2022/11/29 08:32:15;;;;;;;0.57;0.57;;;7.70;99.90;;;;;;5052197;28;20510;-84
2022/11/29 08:34:41;;;;;;;1.13;1.02;;;6.90;99.90;;;;;;5035396;28;20053;-85
2022/11/29 08:37:06;;;;;;;2.50;0.65;;;7.60;99.90;;;;;;5052053;28;20047;-84
2022/11/29 08:39:32;;;;;;;0.95;0.88;;;6.40;99.90;;;;;;5070043;28;20043;-85
2022/11/29 08:41:57;;;;;;;1.08;0.98;;;7.10;99.90;;;;;;5069946;28;20643;-85
2022/11/29 08:44:23;;;;;;;1.20;0.70;;;7.00;99.90;;;;;;5051583;28;20040;-87
2022/11/29 08:49:33;;;;;;;1.27;1.17;;;7.00;99.90;;;;;;5050598;28;20056;-85
2022/11/29 08:54:43;;;;;;;2.90;2.45;;;6.80;99.90;;;;;;5068505;28;20495;-85
2022/11/29 08:57:09;;;;;;;1.48;0.95;;;7.20;99.90;;;;;;5067511;28;20059;-85
2022/11/29 08:59:35;;;;;;;2.83;1.17;;;8.00;99.90;;;;;;5034227;28;20048;-84
2022/11/29 09:02:00;;;;;;;1.00;0.80;;;7.60;99.90;;;;;;5035002;28;20506;-85
2022/11/29 09:04:29;;;;;;;1.50;1.27;;;7.30;99.90;;;;;;5067724;28;20056;-85
2022/11/29 09:06:54;;;;;;;1.70;1.35;;;8.20;99.90;;;;;;5069508;28;20051;-85
2022/11/29 09:09:20;;;;;;;0.88;0.73;;;7.70;99.90;;;;;;5051640;28;20131;-85
2022/11/29 09:11:56;;;;;;;2.30;1.77;;;7.60;99.90;;;;;;5067974;28;20892;-86
2022/11/29 09:14:23;;;;;;;0.90;0.77;;;7.90;99.90;;;;;;5067581;28;20678;-86
2022/11/29 09:16:48;;;;;;;1.13;1.02;;;7.30;99.90;;;;;;5050974;28;20051;-84
2022/11/29 09:19:15;;;;;;;0.60;0.60;;;7.20;99.90;;;;;;5068991;28;20044;-85
2022/11/29 09:21:41;;;;;;;2.75;1.88;;;7.30;99.90;;;;;;5050822;28;20506;-87
2022/11/29 09:24:08;;;;;;;1.15;0.88;;;6.80;99.90;;;;;;5050982;28;20086;-85
2022/11/29 09:26:36;;;;;;;1.85;1.13;;;7.40;99.90;;;;;;5050289;28;20084;-85
2022/11/29 09:29:04;;;;;;;2.75;1.60;;;8.10;99.90;;;;;;5050469;28;20056;-85
2022/11/29 09:31:33;;;;;;;1.05;0.90;;;7.40;99.90;;;;;;5068350;28;20053;-84
2022/11/29 09:33:59;;;;;;;2.30;1.08;;;7.10;99.90;;;;;;5068363;28;20052;-85
2022/11/29 09:36:25;;;;;;;5.15;2.60;;;7.60;99.90;;;;;;5068601;28;20097;-86
2022/11/29 09:38:51;;;;;;;0.65;0.65;;;8.20;99.90;;;;;;5067321;28;20414;-86
2022/11/29 09:41:41;;;;;;;3.70;2.42;;;7.60;99.90;;;;;;5067648;28;20048;-85
2022/11/29 09:44:40;;;;;;;0.40;0.40;;;7.70;99.90;;;;;;5050405;28;20060;-85
2022/11/29 09:47:27;;;;;;;0.10;0.10;;;7.80;99.90;;;;;;5068880;28;20044;-85
2022/11/29 09:50:10;;;;;;;0.90;0.77;;;7.80;99.90;;;;;;5049528;28;20518;-84
2022/11/29 09:52:55;;;;;;;0.75;0.75;;;7.90;99.90;;;;;;5067296;28;20508;-85
2022/11/29 09:55:33;;;;;;;1.13;1.02;;;8.00;99.90;;;;;;5067923;28;20587;-85
2022/11/29 09:58:02;;;;;;;4.63;2.10;;;8.10;99.90;;;;;;5067925;28;20467;-85
2022/11/29 10:00:31;;;;;;;0.80;0.77;;;8.20;99.90;;;;;;5067744;28;20877;-86
2022/11/29 10:03:10;;;;;;;0.43;0.43;;;8.30;99.90;;;;;;5050255;28;20063;-84
2022/11/29 10:05:46;;;;;;;1.85;0.38;;;8.40;99.90;;;;;;5067620;28;20052;-85
2022/11/29 10:08:19;;;;;;;0.50;0.50;;;8.50;99.90;;;;;;5050078;28;20040;-85
2022/11/29 10:10:47;;;;;;;0.05;0.05;;;8.50;99.90;;;;;;5049868;28;20058;-84
2022/11/29 10:13:22;;;;;;;0.28;0.28;;;8.50;99.90;;;;;;5067873;28;20153;-85
2022/11/29 10:15:52;;;;;;;0.73;0.73;;;8.50;99.90;;;;;;5068243;28;20044;-85
2022/11/29 10:18:26;;;;;;;0.35;0.22;;;8.50;99.90;;;;;;5068107;28;20052;-85
2022/11/29 10:20:57;;;;;;;0.15;0.15;;;8.50;99.90;;;;;;5067809;28;20556;-84
2022/11/29 10:23:24;;;;;;;2.30;0.28;;;8.50;99.90;;;;;;5068098;28;20120;-85
2022/11/29 10:25:55;;;;;;;1.85;0.80;;;8.60;99.90;;;;;;5067607;28;20032;-85
2022/11/29 10:28:25;;;;;;;0.73;0.73;;;8.60;99.90;;;;;;5067766;28;20099;-84
2022/11/29 10:30:54;;;;;;;1.75;0.52;;;8.70;99.90;;;;;;5068026;28;20052;-84
2022/11/29 10:33:25;;;;;;;0.50;0.50;;;8.70;99.90;;;;;;5067681;28;20135;-85
2022/11/29 10:35:56;;;;;;;0.00;0.00;;;8.80;99.90;;;;;;5067480;28;20077;-84
2022/11/29 10:38:23;;;;;;;0.15;0.15;;;8.80;99.90;;;;;;5067079;28;20135;-84
2022/11/29 10:41:03;;;;;;;0.20;0.20;;;8.80;99.90;;;;;;5067876;28;20055;-84
2022/11/29 10:43:29;;;;;;;1.05;0.60;;;8.80;99.90;;;;;;5067461;28;20047;-84
2022/11/29 10:45:55;;;;;;;1.15;0.70;;;8.80;99.90;;;;;;5067513;28;20115;-85
2022/11/29 10:48:27;;;;;;;3.88;0.45;;;8.90;99.90;;;;;;5067598;28;20044;-84
2022/11/29 10:50:53;;;;;;;0.30;0.30;;;8.90;99.90;;;;;;5049322;28;20531;-85
2022/11/29 10:53:35;;;;;;;0.28;0.28;;;8.80;99.90;;;;;;5067937;28;20078;-85
2022/11/29 10:56:28;;;;;;;0.68;0.68;;;8.80;99.90;;;;;;5067683;28;20067;-84
2022/11/29 10:59:08;;;;;;;0.35;0.30;;;8.80;99.90;;;;;;5049199;28;20053;-86
2022/11/29 11:01:41;;;;;;;0.30;0.30;;;8.80;99.90;;;;;;5049347;28;20047;-85
2022/11/29 11:04:15;;;;;;;0.45;0.45;;;8.90;99.90;;;;;;5067561;28;20063;-86
2022/11/29 11:06:42;;;;;;;0.95;0.73;;;8.90;99.90;;;;;;5049134;28;20048;-85
2022/11/29 11:09:27;;;;;;;1.00;0.60;;;8.90;99.90;;;;;;5067880;28;20056;-85
2022/11/29 11:11:56;;;;;;;0.52;0.45;;;8.90;99.90;;;;;;5066325;28;20425;-84
2022/11/29 11:14:27;;;;;;;0.40;0.40;;;9.00;99.90;;;;;;5067283;28;20508;-84
2022/11/29 11:16:53;;;;;;;0.30;0.30;;;9.00;99.90;;;;;;5049259;28;20049;-84
2022/11/29 11:19:31;;;;;;;0.10;0.10;;;9.00;99.90;;;;;;5063651;28;20063;-84
2022/11/29 11:22:04;;;;;;;1.05;0.73;;;9.10;99.90;;;;;;5046674;28;20084;-86
2022/11/29 11:24:32;;;;;;;0.10;0.10;;;9.20;99.90;;;;;;5047031;28;20037;-84
2022/11/29 11:26:59;;;;;;;0.50;0.25;;;9.30;99.90;;;;;;5045794;28;20111;-84
2022/11/29 11:29:38;;;;;;;0.57;0.47;;;9.40;99.90;;;;;;5046758;28;20037;-85
2022/11/29 11:32:06;;;;;;;0.93;0.63;;;9.50;99.90;;;;;;5047230;28;20060;-84
2022/11/29 11:34:34;;;;;;;0.43;0.43;;;9.60;99.90;;;;;;5047219;28;20087;-85
2022/11/29 11:37:15;;;;;;;1.02;0.93;;;9.60;99.90;;;;;;5046668;28;20049;-85
2022/11/29 11:39:46;;;;;;;0.20;0.20;;;9.70;99.90;;;;;;5047251;28;20060;-85
2022/11/29 11:45:01;;;;;;;0.55;0.55;;;9.90;99.90;;;;;;5046979;28;20057;-84
2022/11/29 11:47:29;;;;;;;2.65;1.83;;;10.20;99.90;;;;;;5028826;28;20041;-84
2022/11/29 11:50:07;;;;;;;0.57;0.57;;;10.50;99.90;;;;;;5046748;28;20048;-85
2022/11/29 11:52:53;;;;;;;0.73;0.73;;;10.10;99.90;;;;;;5028972;28;20053;-85
2022/11/29 11:55:27;;;;;;;4.47;1.73;;;10.00;99.90;;;;;;5047404;28;20049;-85
2022/11/29 11:58:17;;;;;;;4.38;1.48;;;10.00;99.90;;;;;;5046486;28;20064;-84
2022/11/29 12:01:17;;;;;;;1.55;1.30;;;9.90;99.90;;;;;;5045961;28;20056;-85
2022/11/29 12:04:15;;;;;;;3.03;1.67;;;9.80;99.90;;;;;;5047979;28;20083;-84
2022/11/29 12:06:44;;;;;;;0.55;0.50;;;9.80;99.90;;;;;;5050073;28;20049;-85
2022/11/29 12:09:28;;;;;;;1.02;0.98;;;9.60;99.90;;;;;;5049891;28;20060;-84
2022/11/29 12:12:12;;;;;;;0.32;0.30;;;9.50;99.90;;;;;;5049979;28;20087;-86
2022/11/29 12:14:50;;;;;;;1.85;1.05;;;9.40;99.90;;;;;;5050218;28;20049;-85
2022/11/29 12:17:33;;;;;;;1.80;1.27;;;9.40;99.90;;;;;;5050625;28;20067;-85
2022/11/29 12:20:27;;;;;;;2.60;0.80;;;9.30;99.90;;;;;;5050285;28;20072;-85
2022/11/29 12:22:52;;;;;;;1.90;1.73;;;9.30;99.90;;;;;;5049694;28;20053;-84
2022/11/29 12:25:28;;;;;;;1.48;1.13;;;9.20;99.90;;;;;;5050486;28;20110;-85
2022/11/29 12:27:54;;;;;;;0.55;0.55;;;9.30;99.90;;;;;;5049773;28;20084;-85
2022/11/29 12:30:20;;;;;;;0.77;0.65;;;9.10;99.90;;;;;;5049933;28;20049;-85
2022/11/29 12:33:20;;;;;;;8.60;4.82;;;9.10;99.90;;;;;;5049669;28;20086;-85
2022/11/29 12:36:06;;;;;;;3.50;1.20;;;9.10;99.90;;;;;;5048314;28;20384;-85
2022/11/29 12:38:32;;;;;;;;;;;9.10;99.90;;;;;;5050728;28;20056;-84
2022/11/29 12:41:28;;;;;;;0.60;0.40;;;9.00;99.90;;;;;;5051853;28;19931;-85
2022/11/29 12:44:02;;;;;;;8.73;2.15;;;8.90;99.90;;;;;;5050393;28;20483;-84
2022/11/29 12:46:29;;;;;;;0.70;0.38;;;9.40;99.90;;;;;;5049621;28;20045;-85
2022/11/29 12:49:19;;;;;;;1.23;1.13;;;9.40;99.90;;;;;;5017110;28;20072;-85
2022/11/29 12:52:04;;;;;;;0.90;0.30;;;8.90;99.90;;;;;;5049768;28;20049;-84
2022/11/29 12:54:39;;;;;;;0.38;0.38;;;8.80;99.90;;;;;;5032302;28;20053;-84
2022/11/29 12:57:22;;;;;;;0.20;0.20;;;8.80;99.90;;;;;;5051205;28;20124;-84
2022/11/29 13:00:09;;;;;;;0.28;0.28;;;8.70;99.90;;;;;;5032752;28;20061;-85
2022/11/29 13:02:38;;;;;;;2.53;1.92;;;8.80;99.90;;;;;;5032646;28;20088;-84
2022/11/29 13:05:14;;;;;;;1.10;0.93;;;8.80;99.90;;;;;;5033142;28;20052;-84
2022/11/29 13:08:17;;;;;;;1.25;1.15;;;8.80;99.90;;;;;;5050937;28;20045;-85
2022/11/29 13:10:55;;;;;;;0.50;0.50;;;8.80;99.90;;;;;;5033049;28;20509;-84
2022/11/29 13:13:47;;;;;;;0.17;0.17;;;8.70;99.90;;;;;;5048598;28;20151;-84
2022/11/29 13:16:46;;;;;;;0.55;0.55;;;8.70;99.90;;;;;;5051344;28;20049;-85
2022/11/29 13:19:33;;;;;;;0.10;0.10;;;8.60;99.90;;;;;;5032635;28;20057;-84
2022/11/29 13:22:17;;;;;;;2.55;1.13;;;8.50;99.90;;;;;;5032196;28;20082;-84
2022/11/29 13:24:49;;;;;;;0.85;0.85;;;8.50;99.90;;;;;;5049000;28;20113;-85
2022/11/29 13:27:39;;;;;;;0.35;0.32;;;8.40;99.90;;;;;;5032710;28;20057;-84
2022/11/29 13:30:06;;;;;;;1.45;0.93;;;8.40;99.90;;;;;;5015934;28;20084;-84
2022/11/29 13:32:38;;;;;;;1.42;0.80;;;8.30;99.90;;;;;;5050188;28;20515;-85
2022/11/29 13:35:21;;;;;;;0.57;0.52;;;8.20;99.90;;;;;;5032370;28;20600;-84
2022/11/29 13:38:09;;;;;;;1.90;0.55;;;8.20;99.90;;;;;;5049027;28;20055;-85
2022/11/29 13:40:42;;;;;;;2.13;1.63;;;8.20;99.90;;;;;;5049916;28;20049;-85
2022/11/29 13:43:40;;;;;;;0.63;0.63;;;8.10;99.90;;;;;;5031326;28;20059;-85
2022/11/29 13:46:19;;;;;;;0.65;0.65;;;8.10;99.90;;;;;;5049069;28;20052;-84
2022/11/29 13:48:50;;;;;;;1.88;0.80;;;8.00;99.90;;;;;;5048745;28;20053;-85
2022/11/29 13:51:35;;;;;;;0.25;0.20;;;8.00;99.90;;;;;;5048191;28;20084;-84
2022/11/29 13:54:23;;;;;;;0.63;0.52;;;8.00;99.90;;;;;;5047830;28;20131;-84
2022/11/29 13:57:04;;;;;;;1.00;0.90;;;8.00;99.90;;;;;;5047212;28;20053;-84
2022/11/29 13:59:31;;;;;;;1.70;0.90;;;8.00;99.90;;;;;;5047852;28;20065;-84